Time;durP1;ratioP1;P1;durP2;ratioP2;P2;SDS_P1;SDS_P2;PMS_P1;PMS_P2;Temp;Humidity;BMP_temperature;BMP_pressure;BME280_temperature;BME280_humidity;BME280_pressure;Samples;Min_cycle;Max_cycle;Signal;HPM_P1;HPM_P2
2023/07/29 00:01:44;;;;;;;;;;;17.30;99.90;;;;;;5068184;28;20370;-87
2023/07/29 00:04:09;;;;;;;;;;;17.20;99.90;;;;;;5057344;28;19924;-86
2023/07/29 00:06:35;;;;;;;;;;;17.20;99.90;;;;;;5057191;28;19924;-86
2023/07/29 00:09:01;;;;;;;;;;;17.20;99.90;;;;;;5072783;28;19982;-86
2023/07/29 00:11:27;;;;;;;;;;;17.20;99.90;;;;;;5092348;28;19970;-88
2023/07/29 00:13:53;;;;;;;;;;;17.20;99.90;;;;;;5077604;28;19932;-86
2023/07/29 00:16:21;;;;;;;;;;;17.20;99.90;;;;;;5074200;28;19930;-87
2023/07/29 00:18:47;;;;;;;;;;;17.20;99.90;;;;;;5073761;28;19924;-86
2023/07/29 00:21:13;;;;;;;;;;;17.20;99.90;;;;;;5047228;28;19928;-86
2023/07/29 00:23:38;;;;;;;;;;;17.10;99.90;;;;;;5086804;28;19950;-86
2023/07/29 00:26:04;;;;;;;;;;;17.10;99.90;;;;;;5084478;28;19943;-86
2023/07/29 00:28:30;;;;;;;;;;;17.00;99.90;;;;;;5084656;28;19924;-86
2023/07/29 00:30:55;;;;;;;;;;;17.00;99.90;;;;;;5059730;28;20522;-86
2023/07/29 00:33:21;;;;;;;;;;;17.00;99.90;;;;;;5071141;28;19932;-87
2023/07/29 00:35:46;;;;;;;;;;;17.00;99.90;;;;;;5070574;28;19925;-88
2023/07/29 00:38:12;;;;;;;;;;;17.00;99.90;;;;;;5072128;28;19928;-86
2023/07/29 00:40:38;;;;;;;;;;;17.00;99.90;;;;;;5084739;28;19931;-87
2023/07/29 00:43:03;;;;;;;;;;;16.90;99.90;;;;;;5071026;28;19931;-87
2023/07/29 00:45:29;;;;;;;;;;;16.90;99.90;;;;;;5052435;28;19994;-87
2023/07/29 00:47:55;;;;;;;;;;;16.90;99.90;;;;;;5067088;28;19924;-86
2023/07/29 00:50:21;;;;;;;;;;;16.90;99.90;;;;;;5071219;28;20499;-88
2023/07/29 00:52:47;;;;;;;;;;;16.90;99.90;;;;;;5090029;28;19928;-86
2023/07/29 00:55:12;;;;;;;;;;;16.90;99.90;;;;;;5091226;28;20026;-86
2023/07/29 00:57:39;;;;;;;;;;;16.90;99.90;;;;;;5072457;28;19971;-86
2023/07/29 01:00:05;;;;;;;;;;;16.80;99.90;;;;;;5072441;28;19985;-86
2023/07/29 01:02:32;;;;;;;;;;;16.80;99.90;;;;;;5069944;28;19924;-85
2023/07/29 01:04:58;;;;;;;;;;;16.80;99.90;;;;;;5071123;28;20020;-86
2023/07/29 01:07:33;;;;;;;;;;;16.90;99.90;;;;;;5072378;28;19978;-85
2023/07/29 01:10:19;;;;;;;;;;;16.80;99.90;;;;;;5065691;28;19924;-87
2023/07/29 01:12:57;;;;;;;;;;;16.80;99.90;;;;;;5069562;28;19928;-85
2023/07/29 01:15:44;;;;;;;;;;;16.80;99.90;;;;;;5090297;28;20352;-87
2023/07/29 01:18:22;;;;;;;;;;;16.90;99.90;;;;;;5094039;28;19959;-85
2023/07/29 01:20:48;;;;;;;;;;;16.90;99.90;;;;;;5077344;28;19963;-85
2023/07/29 01:23:15;;;;;;;;;;;16.90;99.90;;;;;;5075362;28;19931;-87
2023/07/29 01:25:41;;;;;;;;;;;16.80;99.90;;;;;;5076113;28;19989;-86
2023/07/29 01:28:06;;;;;;;;;;;16.80;99.90;;;;;;5077233;28;20375;-88
2023/07/29 01:30:39;;;;;;;;;;;16.90;99.90;;;;;;5077163;28;19986;-87
2023/07/29 01:33:10;;;;;;;;;;;16.80;99.90;;;;;;5075064;28;20375;-86
2023/07/29 01:35:40;;;;;;;;;;;16.80;99.90;;;;;;5077170;28;19982;-86
2023/07/29 01:38:08;;;;;;;;;;;16.80;99.90;;;;;;5061497;28;19931;-87
2023/07/29 01:40:34;;;;;;;;;;;16.80;99.90;;;;;;5094274;28;19931;-87
2023/07/29 01:42:59;;;;;;;;;;;16.70;99.90;;;;;;5077454;28;19924;-86
2023/07/29 01:45:25;;;;;;;;;;;16.70;99.90;;;;;;5093951;28;20014;-87
2023/07/29 01:47:51;;;;;;;;;;;16.70;99.90;;;;;;5075983;28;19935;-86
2023/07/29 01:50:17;;;;;;;;;;;16.70;99.90;;;;;;5060825;28;20665;-86
2023/07/29 01:52:42;;;;;;;;;;;16.70;99.90;;;;;;5071636;28;19939;-86
2023/07/29 01:55:08;;;;;;;;;;;16.70;99.90;;;;;;5071413;28;20452;-87
2023/07/29 01:57:33;;;;;;;;;;;16.70;99.90;;;;;;5072083;28;19931;-87
2023/07/29 01:59:59;;;;;;;;;;;16.70;99.90;;;;;;5093234;28;19932;-86
2023/07/29 02:02:25;;;;;;;;;;;16.70;99.90;;;;;;5070288;28;19928;-87
2023/07/29 02:04:52;;;;;;;;;;;16.70;99.90;;;;;;5075954;28;20370;-86
2023/07/29 02:07:20;;;;;;;;;;;16.70;99.90;;;;;;5094759;28;19938;-86
2023/07/29 02:09:46;;;;;;;;;;;16.70;99.90;;;;;;5076749;28;19932;-86
2023/07/29 02:12:12;;;;;;;;;;;16.70;99.90;;;;;;5092517;28;19928;-86
2023/07/29 02:14:37;;;;;;;;;;;16.70;99.90;;;;;;5094711;28;19924;-85
2023/07/29 02:17:03;;;;;;;;;;;16.70;99.90;;;;;;5076299;28;19971;-86
2023/07/29 02:19:28;;;;;;;;;;;16.70;99.90;;;;;;5075363;28;19932;-85
2023/07/29 02:21:54;;;;;;;;;;;16.70;99.90;;;;;;5093638;28;19955;-86
2023/07/29 02:24:19;;;;;;;;;;;16.80;99.90;;;;;;5092669;28;19924;-86
2023/07/29 02:26:45;;;;;;;;;;;16.70;99.90;;;;;;5059873;28;20302;-86
2023/07/29 02:29:11;;;;;;;;;;;16.70;99.90;;;;;;5075555;28;19967;-87
2023/07/29 02:31:37;;;;;;;;;;;16.70;99.90;;;;;;5075680;28;19928;-86
2023/07/29 02:34:03;;;;;;;;;;;16.70;99.90;;;;;;5074733;28;19928;-85
2023/07/29 02:36:28;;;;;;;;;;;16.70;99.90;;;;;;5059755;28;19924;-86
2023/07/29 02:38:54;;;;;;;;;;;16.70;99.90;;;;;;5076574;28;19928;-86
2023/07/29 02:41:20;;;;;;;;;;;16.80;99.90;;;;;;5078193;28;19928;-85
2023/07/29 02:43:49;;;;;;;;;;;16.80;99.90;;;;;;5095216;28;20511;-86
2023/07/29 02:46:15;;;;;;;;;;;16.70;99.90;;;;;;5072261;28;20213;-84
2023/07/29 02:48:41;;;;;;;;;;;16.80;99.90;;;;;;5072811;28;20053;-85
2023/07/29 02:51:07;;;;;;;;;;;16.70;99.90;;;;;;5068907;28;19925;-86
2023/07/29 02:53:32;;;;;;;;;;;16.70;99.90;;;;;;5033110;28;19932;-88
2023/07/29 02:55:58;;;;;;;;;;;16.70;99.90;;;;;;5067830;28;19932;-86
2023/07/29 02:58:23;;;;;;;;;;;16.60;99.90;;;;;;5061231;28;19933;-85
2023/07/29 03:00:50;;;;;;;;;;;16.60;99.90;;;;;;5067244;28;19932;-87
2023/07/29 03:03:15;;;;;;;;;;;16.60;99.90;;;;;;5068723;28;19958;-88
2023/07/29 03:05:41;;;;;;;;;;;16.60;99.90;;;;;;5063780;28;20034;-86
2023/07/29 03:08:06;;;;;;;;;;;16.50;99.90;;;;;;5061140;28;20287;-87
2023/07/29 03:10:34;;;;;;;;;;;16.60;99.90;;;;;;5066248;28;19924;-87
2023/07/29 03:13:00;;;;;;;;;;;16.50;99.90;;;;;;5062834;28;19935;-84
2023/07/29 03:15:26;;;;;;;;;;;16.50;99.90;;;;;;5070617;28;19929;-86
2023/07/29 03:17:51;;;;;;;;;;;16.50;99.90;;;;;;5063921;28;19982;-87
2023/07/29 03:20:17;;;;;;;;;;;16.50;99.90;;;;;;5064888;28;20019;-87
2023/07/29 03:22:43;;;;;;;;;;;16.40;99.90;;;;;;5064399;28;19979;-88
2023/07/29 03:25:09;;;;;;;;;;;16.40;99.90;;;;;;5065016;28;19935;-86
2023/07/29 03:27:36;;;;;;;;;;;16.30;99.90;;;;;;5065858;28;20291;-85
2023/07/29 03:30:05;;;;;;;;;;;16.30;99.90;;;;;;5063381;28;19982;-86
2023/07/29 03:32:30;;;;;;;;;;;16.30;99.90;;;;;;5065684;28;19928;-86
2023/07/29 03:34:56;;;;;;;;;;;16.30;99.90;;;;;;5063862;28;19936;-86
2023/07/29 03:37:22;;;;;;;;;;;16.30;99.90;;;;;;5063025;28;19932;-88
2023/07/29 03:39:47;;;;;;;;;;;16.20;99.90;;;;;;5065338;28;19924;-86
2023/07/29 03:42:13;;;;;;;;;;;16.20;99.90;;;;;;5064684;28;20414;-85
2023/07/29 03:44:41;;;;;;;;;;;16.20;99.90;;;;;;5058342;28;19931;-86
2023/07/29 03:47:07;;;;;;;;;;;16.20;99.90;;;;;;5044420;28;19951;-86
2023/07/29 03:49:33;;;;;;;;;;;16.20;99.90;;;;;;5062578;28;19932;-87
2023/07/29 03:51:58;;;;;;;;;;;16.10;99.90;;;;;;5064609;28;20454;-87
2023/07/29 03:54:24;;;;;;;;;;;16.10;99.90;;;;;;5046618;28;19964;-87
2023/07/29 03:56:50;;;;;;;;;;;16.10;99.90;;;;;;5063905;28;19929;-89
2023/07/29 03:59:15;;;;;;;;;;;16.10;99.90;;;;;;5061094;28;19925;-86
2023/07/29 04:01:41;;;;;;;;;;;16.10;99.90;;;;;;5065988;28;19960;-86
2023/07/29 04:04:07;;;;;;;;;;;16.10;99.90;;;;;;5066011;28;20016;-86
2023/07/29 04:06:32;;;;;;;;;;;16.10;99.90;;;;;;5044219;28;20205;-86
2023/07/29 04:08:58;;;;;;;;;;;16.10;99.90;;;;;;5061524;28;19928;-87
2023/07/29 04:11:23;;;;;;;;;;;16.10;99.90;;;;;;5064958;28;20279;-85
2023/07/29 04:13:49;;;;;;;;;;;16.20;99.90;;;;;;5064616;28;19925;-87
2023/07/29 04:16:16;;;;;;;;;;;16.20;99.90;;;;;;5057438;28;19928;-86
2023/07/29 04:18:42;;;;;;;;;;;16.20;99.90;;;;;;5030147;28;19928;-87
2023/07/29 04:21:07;;;;;;;;;;;16.20;99.90;;;;;;5069797;28;19928;-88
2023/07/29 04:23:33;;;;;;;;;;;16.20;99.90;;;;;;5070350;28;19939;-87
2023/07/29 04:25:58;;;;;;;;;;;16.30;99.90;;;;;;5070451;28;20442;-86
2023/07/29 04:28:24;;;;;;;;;;;16.30;99.90;;;;;;5053780;28;19928;-86
2023/07/29 04:30:50;;;;;;;;;;;16.30;99.90;;;;;;5069595;28;19932;-86
2023/07/29 04:33:15;;;;;;;;;;;16.30;99.90;;;;;;5069729;28;19925;-86
2023/07/29 04:35:41;;;;;;;;;;;16.30;99.90;;;;;;5070844;28;19951;-85
2023/07/29 04:38:06;;;;;;;;;;;16.30;99.90;;;;;;5072104;28;20375;-85
2023/07/29 04:40:35;;;;;;;;;;;16.30;99.90;;;;;;5071439;28;19971;-85
2023/07/29 04:43:01;;;;;;;;;;;16.30;99.90;;;;;;5069837;28;20417;-88
2023/07/29 04:45:30;;;;;;;;;;;16.30;99.90;;;;;;5053551;28;19932;-85
2023/07/29 04:47:56;;;;;;;;;;;16.30;99.90;;;;;;5091805;28;19988;-86
2023/07/29 04:50:21;;;;;;;;;;;16.30;99.90;;;;;;5091323;28;19924;-85
2023/07/29 04:52:47;;;;;;;;;;;16.30;99.90;;;;;;5054982;28;19989;-87
2023/07/29 04:55:12;;;;;;;;;;;16.40;99.90;;;;;;5073355;28;20007;-86
2023/07/29 04:57:38;;;;;;;;;;;16.40;99.90;;;;;;5056612;28;19924;-86
2023/07/29 05:00:04;;;;;;;;;;;16.40;99.90;;;;;;5073365;28;19924;-86
2023/07/29 05:02:29;;;;;;;;;;;16.40;99.90;;;;;;5089616;28;19970;-86
2023/07/29 05:04:55;;;;;;;;;;;16.50;99.90;;;;;;5073053;28;20043;-85
2023/07/29 05:07:20;;;;;;;;;;;16.50;99.90;;;;;;5073061;28;20263;-85
2023/07/29 05:09:47;;;;;;;;;;;16.50;99.90;;;;;;5073117;28;19946;-85
2023/07/29 05:12:12;;;;;;;;;;;16.50;99.90;;;;;;5073560;28;20081;-87
2023/07/29 05:14:38;;;;;;;;;;;16.60;99.90;;;;;;5072323;28;20434;-84
2023/07/29 05:17:03;;;;;;;;;;;16.60;99.90;;;;;;5053328;28;19924;-86
2023/07/29 05:19:29;;;;;;;;;;;16.60;99.90;;;;;;5086007;28;19928;-86
2023/07/29 05:21:55;;;;;;;;;;;16.70;99.90;;;;;;5088331;28;19934;-86
2023/07/29 05:24:21;;;;;;;;;;;16.70;99.90;;;;;;5071381;28;19963;-85
2023/07/29 05:26:46;;;;;;;;;;;16.80;99.90;;;;;;5090406;28;20404;-87
2023/07/29 05:29:12;;;;;;;;;;;16.80;99.90;;;;;;5073368;28;19935;-87
2023/07/29 05:31:37;;;;;;;;;;;16.90;99.90;;;;;;5055432;28;20015;-86
2023/07/29 05:34:03;;;;;;;;;;;17.00;99.90;;;;;;5073233;28;19932;-87
2023/07/29 05:36:29;;;;;;;;;;;16.90;99.90;;;;;;5090054;28;20287;-86
2023/07/29 05:38:54;;;;;;;;;;;16.90;99.90;;;;;;5052721;28;19978;-88
2023/07/29 05:41:20;;;;;;;;;;;17.00;99.90;;;;;;5085965;28;19993;-87
2023/07/29 05:43:46;;;;;;;;;;;17.00;99.90;;;;;;5090746;28;19928;-87
2023/07/29 05:46:12;;;;;;;;;;;17.00;99.90;;;;;;5072568;28;19928;-87
2023/07/29 05:48:37;;;;;;;;;;;17.00;99.90;;;;;;5090750;28;19935;-88
2023/07/29 05:51:05;;;;;;;;;;;17.00;99.90;;;;;;5070940;28;19952;-86
2023/07/29 05:53:31;;;;;;;;;;;17.10;99.90;;;;;;5053229;28;19928;-89
2023/07/29 05:55:56;;;;;;;;;;;17.10;99.90;;;;;;5072754;28;20016;-87
2023/07/29 05:58:22;;;;;;;;;;;17.10;99.90;;;;;;5056484;28;19924;-86
2023/07/29 06:00:47;;;;;;;;;;;17.20;99.90;;;;;;5090631;28;19931;-88
2023/07/29 06:03:13;;;;;;;;;;;17.20;99.90;;;;;;5071982;28;20019;-88
2023/07/29 06:05:39;;;;;;;;;;;17.30;99.90;;;;;;5092330;28;20007;-86
2023/07/29 06:08:05;;;;;;;;;;;17.30;99.90;;;;;;5094226;28;20054;-87
2023/07/29 06:10:30;;;;;;;;;;;17.30;99.90;;;;;;5076387;28;19931;-86
2023/07/29 06:12:56;;;;;;;;;;;17.30;99.90;;;;;;5074957;28;20414;-89
2023/07/29 06:15:22;;;;;;;;;;;17.40;99.90;;;;;;5077366;28;19928;-86
2023/07/29 06:17:48;;;;;;;;;;;17.60;99.90;;;;;;5069713;28;19931;-87
2023/07/29 06:20:14;;;;;;;;;;;17.70;99.90;;;;;;5074481;28;20655;-87
2023/07/29 06:22:39;;;;;;;;;;;18.00;99.90;;;;;;5077030;28;19935;-87
2023/07/29 06:25:05;;;;;;;;;;;18.10;99.90;;;;;;5057851;28;19924;-87
2023/07/29 06:27:30;;;;;;;;;;;18.20;99.90;;;;;;5075611;28;19964;-87
2023/07/29 06:29:56;;;;;;;;;;;18.20;99.90;;;;;;5076449;28;19962;-88
2023/07/29 06:32:21;;;;;;;;;;;18.20;99.90;;;;;;5074828;28;19981;-88
2023/07/29 06:34:47;;;;;;;;;;;18.30;99.90;;;;;;5068474;28;19928;-88
2023/07/29 06:37:13;;;;;;;;;;;18.30;99.90;;;;;;5076082;28;20402;-87
2023/07/29 06:39:38;;;;;;;;;;;18.30;99.90;;;;;;5073908;28;19924;-88
2023/07/29 06:42:04;;;;;;;;;;;18.40;99.90;;;;;;5074158;28;19924;-89
2023/07/29 06:44:29;;;;;;;;;;;18.60;99.90;;;;;;5073413;28;19928;-87
2023/07/29 06:46:55;;;;;;;;;;;18.80;99.90;;;;;;5058451;28;19931;-87
2023/07/29 06:49:21;;;;;;;;;;;19.00;99.90;;;;;;5092651;28;19924;-86
2023/07/29 06:51:46;;;;;;;;;;;19.00;99.90;;;;;;5071059;28;20274;-86
2023/07/29 06:54:12;;;;;;;;;;;19.10;99.90;;;;;;5066963;28;19928;-87
2023/07/29 06:56:37;;;;;;;;;;;19.10;99.90;;;;;;5073724;28;19974;-88
2023/07/29 06:59:03;;;;;;;;;;;19.10;99.90;;;;;;5072664;28;20481;-87
2023/07/29 07:01:28;;;;;;;;;;;19.10;99.90;;;;;;5093193;28;19924;-86
2023/07/29 07:03:54;;;;;;;;;;;19.00;99.90;;;;;;5071583;28;19986;-87
2023/07/29 07:06:24;;;;;;;;;;;18.90;99.90;;;;;;5088126;28;19924;-89
2023/07/29 07:08:50;;;;;;;;;;;19.00;99.90;;;;;;5075745;28;19924;-88
2023/07/29 07:11:16;;;;;;;;;;;19.00;99.90;;;;;;5073003;28;20024;-87
2023/07/29 07:13:41;;;;;;;;;;;19.10;99.90;;;;;;5092404;28;19986;-86
2023/07/29 07:16:07;;;;;;;;;;;19.50;99.90;;;;;;5091587;28;19928;-85
2023/07/29 07:18:32;;;;;;;;;;;19.90;99.90;;;;;;5081176;28;19924;-85
2023/07/29 07:20:58;;;;;;;;;;;20.20;99.90;;;;;;5053146;28;19939;-87
2023/07/29 07:23:24;;;;;;;;;;;20.40;99.90;;;;;;5083593;28;20757;-84
2023/07/29 07:25:49;;;;;;;;;;;20.70;99.90;;;;;;5085267;28;20263;-87
2023/07/29 07:28:15;;;;;;;;;;;21.00;99.90;;;;;;5068287;28;19928;-86
2023/07/29 07:30:43;;;;;;;;;;;21.40;99.90;;;;;;5086738;28;19932;-86
2023/07/29 07:33:09;;;;;;;;;;;21.70;99.90;;;;;;5087414;28;19924;-87
2023/07/29 07:35:34;;;;;;;;;;;21.90;99.90;;;;;;5084398;28;20014;-86
2023/07/29 07:38:02;;;;;;;;;;;22.00;99.90;;;;;;5065248;28;20278;-87
2023/07/29 07:40:27;;;;;;;;;;;22.10;99.90;;;;;;5074162;28;19928;-87
2023/07/29 07:42:53;;;;;;;;;;;22.10;99.90;;;;;;5082494;28;19940;-88
2023/07/29 07:45:19;;;;;;;;;;;22.10;99.90;;;;;;5082378;28;19931;-86
2023/07/29 07:47:45;;;;;;;;;;;22.00;99.90;;;;;;5087943;28;19924;-85
2023/07/29 07:50:10;;;;;;;;;;;21.90;99.90;;;;;;5073302;28;20092;-89
2023/07/29 07:52:36;;;;;;;;;;;21.60;99.90;;;;;;5090089;28;19927;-87
2023/07/29 07:55:01;;;;;;;;;;;21.40;99.90;;;;;;5092458;28;20440;-87
2023/07/29 07:57:27;;;;;;;;;;;21.20;99.90;;;;;;5062118;28;19927;-86
2023/07/29 07:59:52;;;;;;;;;;;21.20;99.90;;;;;;5092560;28;20325;-86
2023/07/29 08:02:18;;;;;;;;;;;21.10;99.90;;;;;;5051251;28;19928;-86
2023/07/29 08:04:44;;;;;;;;;;;21.20;99.90;;;;;;5053340;28;20421;-86
2023/07/29 08:07:09;;;;;;;;;;;21.30;99.90;;;;;;5069036;28;19928;-90
2023/07/29 08:09:35;;;;;;;;;;;21.20;99.90;;;;;;5082735;28;19936;-91
2023/07/29 08:12:00;;;;;;;;;;;21.30;99.90;;;;;;5074606;28;19931;-89
2023/07/29 08:14:26;;;;;;;;;;;21.50;99.90;;;;;;5054542;28;19935;-90
2023/07/29 08:16:52;;;;;;;;;;;21.40;99.90;;;;;;5075307;28;19924;-87
2023/07/29 08:19:17;;;;;;;;;;;21.40;99.90;;;;;;5056444;28;19950;-88
2023/07/29 08:21:43;;;;;;;;;;;21.40;99.90;;;;;;5071223;28;20011;-89
2023/07/29 08:24:09;;;;;;;;;;;21.30;99.90;;;;;;5088322;28;19924;-87
2023/07/29 08:26:34;;;;;;;;;;;21.20;99.90;;;;;;5073156;28;19970;-89
2023/07/29 08:29:00;;;;;;;;;;;21.10;99.90;;;;;;5054581;28;19929;-88
2023/07/29 08:31:26;;;;;;;;;;;21.10;99.90;;;;;;5090919;28;19924;-89
2023/07/29 08:33:51;;;;;;;;;;;21.10;99.90;;;;;;5062299;28;20410;-87
2023/07/29 08:36:17;;;;;;;;;;;21.30;99.90;;;;;;5089371;28;19953;-86
2023/07/29 08:38:42;;;;;;;;;;;21.40;99.90;;;;;;5073486;28;20370;-88
2023/07/29 08:41:11;;;;;;;;;;;21.50;99.90;;;;;;5073717;28;19932;-88
2023/07/29 08:43:38;;;;;;;;;;;21.40;99.90;;;;;;5072934;28;20014;-88
2023/07/29 08:46:06;;;;;;;;;;;21.60;99.90;;;;;;5072479;28;20021;-89
2023/07/29 08:48:32;;;;;;;;;;;22.10;99.90;;;;;;5072024;28;20310;-87
2023/07/29 08:50:58;;;;;;;;;;;22.70;99.90;;;;;;5073831;28;19924;-88
2023/07/29 08:53:24;;;;;;;;;;;23.10;99.90;;;;;;5071309;28;20431;-87
2023/07/29 08:55:50;;;;;;;;;;;23.30;99.90;;;;;;5073871;28;19924;-89
2023/07/29 08:58:15;;;;;;;;;;;23.70;99.90;;;;;;5072436;28;19928;-90
2023/07/29 09:00:41;;;;;;;;;;;24.20;99.90;;;;;;5089949;28;20400;-88
2023/07/29 09:03:07;;;;;;;;;;;24.70;99.90;;;;;;5085686;28;20033;-88
2023/07/29 09:05:33;;;;;;;;;;;25.10;99.90;;;;;;5072039;28;19959;-88
2023/07/29 09:07:59;;;;;;;;;;;25.30;99.90;;;;;;5090870;28;19924;-90
2023/07/29 09:10:25;;;;;;;;;;;25.40;99.90;;;;;;5090542;28;19924;-86
2023/07/29 09:12:51;;;;;;;;;;;25.60;99.90;;;;;;5091088;28;19930;-86
2023/07/29 09:15:26;;;;;;;;;;;25.40;99.90;;;;;;5096770;28;20043;-85
2023/07/29 09:17:52;;;;;;;;;;;25.00;99.90;;;;;;5095758;28;19928;-85
2023/07/29 09:20:23;;;;;;;;;;;24.50;99.90;;;;;;5075853;28;19931;-88
2023/07/29 09:22:48;;;;;;;;;;;24.20;99.90;;;;;;5092005;28;20298;-85
2023/07/29 09:25:16;;;;;;;;;;;23.90;99.90;;;;;;5052263;28;19925;-85
2023/07/29 09:27:41;;;;;;;;;;;23.70;99.90;;;;;;5088892;28;19969;-85
2023/07/29 09:30:15;;;;;;;;;;;23.60;99.90;;;;;;5069520;28;19924;-86
2023/07/29 09:32:41;;;;;;;;;;;23.70;99.90;;;;;;5067119;28;19999;-86
2023/07/29 09:35:11;;;;;;;;;;;24.20;99.90;;;;;;5086430;28;19970;-87
2023/07/29 09:37:37;;;;;;;;;;;24.60;99.90;;;;;;5087619;28;20054;-86
2023/07/29 09:40:03;;;;;;;;;;;24.60;99.90;;;;;;5092639;28;19924;-84
2023/07/29 09:42:28;;;;;;;;;;;24.30;99.90;;;;;;5092187;28;20121;-86
2023/07/29 09:44:54;;;;;;;;;;;24.10;99.90;;;;;;5071041;28;19947;-85
2023/07/29 09:47:21;;;;;;;;;;;23.80;99.90;;;;;;5075646;28;20053;-87
2023/07/29 09:49:46;;;;;;;;;;;23.60;99.90;;;;;;5094130;28;19932;-85
2023/07/29 09:52:14;;;;;;;;;;;23.40;99.90;;;;;;5090842;28;19924;-88
2023/07/29 09:54:39;;;;;;;;;;;23.50;99.90;;;;;;5094775;28;19994;-85
2023/07/29 09:57:07;;;;;;;;;;;23.60;99.90;;;;;;5094319;28;20034;-88
2023/07/29 09:59:35;;;;;;;;;;;23.80;99.90;;;;;;5090724;28;19985;-85
2023/07/29 10:02:01;;;;;;;;;;;23.80;99.90;;;;;;5072842;28;20409;-86
2023/07/29 10:04:28;;;;;;;;;;;23.70;99.90;;;;;;5084576;28;19981;-83
2023/07/29 10:06:53;;;;;;;;;;;23.50;99.90;;;;;;5094606;28;20033;-85
2023/07/29 10:09:20;;;;;;;;;;;23.40;99.90;;;;;;5094301;28;20410;-84
2023/07/29 10:11:45;;;;;;;;;;;23.30;99.90;;;;;;5092010;28;20014;-87
2023/07/29 10:14:11;;;;;;;;;;;23.50;99.90;;;;;;5089769;28;20007;-85
2023/07/29 10:16:39;;;;;;;;;;;23.60;99.90;;;;;;5074904;28;19993;-85
2023/07/29 10:19:07;;;;;;;;;;;23.80;99.90;;;;;;5092275;28;19924;-85
2023/07/29 10:21:33;;;;;;;;;;;23.70;99.90;;;;;;5085911;28;20379;-86
2023/07/29 10:24:00;;;;;;;;;;;23.50;99.90;;;;;;5092732;28;20019;-84
2023/07/29 10:26:28;;;;;;;;;;;23.40;99.90;;;;;;5094024;28;20294;-87
2023/07/29 10:28:56;;;;;;;;;;;23.70;99.90;;;;;;5056158;28;19939;-84
2023/07/29 10:31:22;;;;;;;;;;;23.80;99.90;;;;;;5093993;28;19924;-87
2023/07/29 10:33:48;;;;;;;;;;;23.90;99.90;;;;;;5089963;28;19959;-85
2023/07/29 10:36:15;;;;;;;;;;;23.80;99.90;;;;;;5083372;28;19931;-85
2023/07/29 10:38:40;;;;;;;;;;;23.80;99.90;;;;;;5073776;28;20397;-87
2023/07/29 10:41:06;;;;;;;;;;;24.00;99.90;;;;;;5091008;28;19940;-85
2023/07/29 10:43:33;;;;;;;;;;;24.30;99.90;;;;;;5071075;28;19928;-87
2023/07/29 10:46:16;;;;;;;;;;;24.50;99.90;;;;;;5092964;28;19928;-86
2023/07/29 10:48:42;;;;;;;;;;;24.60;99.90;;;;;;5092968;28;20298;-87
2023/07/29 10:51:29;;;;;;;;;;;24.50;99.90;;;;;;5093267;28;19931;-87
2023/07/29 10:53:55;;;;;;;;;;;24.30;99.90;;;;;;5087603;28;19928;-88
2023/07/29 10:56:28;;;;;;;;;;;24.00;99.90;;;;;;5073816;28;19964;-85
2023/07/29 10:58:57;;;;;;;;;;;23.60;99.90;;;;;;5093281;28;19932;-86
2023/07/29 11:01:32;;;;;;;;;;;23.30;99.90;;;;;;5091231;28;19931;-85
2023/07/29 11:04:16;;;;;;;;;;;23.10;99.90;;;;;;5092357;28;19924;-86
2023/07/29 11:07:00;;;;;;;;;;;22.90;99.90;;;;;;5088041;28;19932;-88
2023/07/29 11:09:44;;;;;;;;;;;22.90;99.90;;;;;;5070713;28;19924;-87
2023/07/29 11:12:29;;;;;;;;;;;22.90;99.90;;;;;;5082252;28;19985;-87
2023/07/29 11:14:54;;;;;;;;;;;23.00;99.90;;;;;;5088421;28;20453;-88
2023/07/29 11:17:20;;;;;;;;;;;23.20;99.90;;;;;;5093116;28;20014;-87
2023/07/29 11:19:46;;;;;;;;;;;23.50;99.90;;;;;;5073121;28;19931;-85
2023/07/29 11:22:11;;;;;;;;;;;23.60;99.90;;;;;;5085046;28;19929;-87
2023/07/29 11:24:37;;;;;;;;;;;23.60;99.90;;;;;;5072969;28;20291;-89
2023/07/29 11:27:02;;;;;;;;;;;23.40;99.90;;;;;;5090839;28;19929;-86
2023/07/29 11:29:28;;;;;;;;;;;23.20;99.90;;;;;;5092984;28;19947;-87
2023/07/29 11:31:54;;;;;;;;;;;22.90;99.90;;;;;;5090681;28;19935;-87
2023/07/29 11:34:30;;;;;;;;;;;22.80;99.90;;;;;;5092685;28;19924;-87
2023/07/29 11:36:56;;;;;;;;;;;23.00;99.90;;;;;;5090320;28;20013;-88
2023/07/29 11:39:21;;;;;;;;;;;23.10;99.90;;;;;;5092311;28;20007;-86
2023/07/29 11:41:47;;;;;;;;;;;23.10;99.90;;;;;;5092496;28;19924;-88
2023/07/29 11:44:16;;;;;;;;;;;23.20;99.90;;;;;;5056893;28;20387;-87
2023/07/29 11:46:42;;;;;;;;;;;23.30;99.90;;;;;;5090596;28;19932;-87
2023/07/29 11:49:08;;;;;;;;;;;23.60;99.90;;;;;;5090662;28;19931;-86
2023/07/29 11:51:33;;;;;;;;;;;23.90;99.90;;;;;;5092606;28;19928;-88
2023/07/29 11:53:59;;;;;;;;;;;24.20;99.90;;;;;;5089627;28;19924;-90
2023/07/29 11:56:25;;;;;;;;;;;24.30;99.90;;;;;;5053397;28;19960;-86
2023/07/29 11:58:51;;;;;;;;;;;24.50;99.90;;;;;;5089117;28;19924;-87
2023/07/29 12:01:16;;;;;;;;;;;24.60;99.90;;;;;;5091982;28;19951;-86
2023/07/29 12:03:42;;;;;;;;;;;24.70;99.90;;;;;;5086758;28;19978;-86
2023/07/29 12:06:08;;;;;;;;;;;25.00;99.90;;;;;;5073754;28;19924;-87
2023/07/29 12:08:34;;;;;;;;;;;25.30;99.90;;;;;;5088814;28;20271;-87
2023/07/29 12:11:00;;;;;;;;;;;25.50;99.90;;;;;;5080812;28;19994;-85
2023/07/29 12:13:25;;;;;;;;;;;25.50;99.90;;;;;;5089241;28;19924;-87
2023/07/29 12:15:51;;;;;;;;;;;25.30;99.90;;;;;;5092218;28;19925;-84
2023/07/29 12:18:16;;;;;;;;;;;25.00;99.90;;;;;;5091341;28;19928;-86
2023/07/29 12:20:42;;;;;;;;;;;24.80;99.90;;;;;;5072845;28;19935;-85
2023/07/29 12:23:08;;;;;;;;;;;24.70;99.90;;;;;;5088061;28;20550;-87
2023/07/29 12:25:34;;;;;;;;;;;24.70;99.90;;;;;;5091758;28;19928;-84
2023/07/29 12:28:06;;;;;;;;;;;24.90;99.90;;;;;;5091702;28;20007;-85
2023/07/29 12:30:32;;;;;;;;;;;25.00;99.90;;;;;;5087867;28;19940;-86
2023/07/29 12:32:57;;;;;;;;;;;25.40;99.90;;;;;;5089116;28;19924;-86
2023/07/29 12:35:23;;;;;;;;;;;25.50;99.90;;;;;;5084116;28;19935;-86
2023/07/29 12:37:59;;;;;;;;;;;25.70;99.90;;;;;;5073606;28;20015;-86
2023/07/29 12:40:25;;;;;;;;;;;25.70;99.90;;;;;;5073143;28;19954;-86
2023/07/29 12:42:51;;;;;;;;;;;25.60;99.90;;;;;;5070460;28;20345;-87
2023/07/29 12:45:22;;;;;;;;;;;25.40;99.90;;;;;;5086385;28;20263;-87
2023/07/29 12:47:48;;;;;;;;;;;25.10;99.90;;;;;;5084360;28;20003;-86
2023/07/29 12:50:13;;;;;;;;;;;24.70;99.90;;;;;;5088511;28;20445;-86
2023/07/29 12:52:39;;;;;;;;;;;24.40;99.90;;;;;;5089843;28;19928;-85
2023/07/29 12:55:05;;;;;;;;;;;24.00;99.90;;;;;;5089876;28;19928;-85
2023/07/29 12:57:31;;;;;;;;;;;23.60;99.90;;;;;;5068351;28;20049;-88
2023/07/29 12:59:56;;;;;;;;;;;23.20;99.90;;;;;;5078043;28;19925;-87
2023/07/29 13:02:22;;;;;;;;;;;22.90;99.90;;;;;;5067425;28;20850;-89
2023/07/29 13:04:47;;;;;;;;;;;22.70;99.90;;;;;;5071116;28;19936;-87
2023/07/29 13:07:13;;;;;;;;;;;22.60;99.90;;;;;;5090856;28;20367;-88
2023/07/29 13:09:38;;;;;;;;;;;22.50;99.90;;;;;;5055957;28;19924;-88
2023/07/29 13:12:04;;;;;;;;;;;22.60;99.90;;;;;;5074479;28;20003;-88
2023/07/29 13:14:30;;;;;;;;;;;22.70;99.90;;;;;;5095319;28;19931;-87
2023/07/29 13:16:55;;;;;;;;;;;22.70;99.90;;;;;;5058796;28;20366;-87
2023/07/29 13:19:21;;;;;;;;;;;22.70;99.90;;;;;;5055924;28;19924;-88
2023/07/29 13:21:46;;;;;;;;;;;22.70;99.90;;;;;;5079807;28;19925;-89
2023/07/29 13:24:12;;;;;;;;;;;22.60;99.90;;;;;;5078421;28;20290;-87
2023/07/29 13:26:38;;;;;;;;;;;22.40;99.90;;;;;;5061694;28;19925;-87
2023/07/29 13:29:04;;;;;;;;;;;22.20;99.90;;;;;;5080167;28;19931;-87
2023/07/29 13:31:30;;;;;;;;;;;22.00;99.90;;;;;;5079171;28;19928;-87
2023/07/29 13:33:56;;;;;;;;;;;21.70;99.90;;;;;;5061735;28;19924;-90
2023/07/29 13:36:21;;;;;;;;;;;21.20;99.90;;;;;;5062515;28;19928;-89
2023/07/29 13:38:47;;;;;;;;;;;20.60;99.90;;;;;;5080067;28;19931;-89
2023/07/29 13:41:12;;;;;;;;;;;20.10;99.90;;;;;;5080034;28;19935;-86
2023/07/29 13:43:38;;;;;;;;;;;19.70;99.90;;;;;;5097692;28;20430;-89
2023/07/29 13:46:03;;;;;;;;;;;19.40;99.90;;;;;;5078548;28;20294;-88
2023/07/29 13:48:29;;;;;;;;;;;19.10;99.90;;;;;;5097334;28;19931;-90
2023/07/29 13:50:55;;;;;;;;;;;19.00;99.90;;;;;;5097776;28;19955;-89
2023/07/29 13:53:20;;;;;;;;;;;18.90;99.90;;;;;;5097335;28;20375;-89
2023/07/29 13:55:46;;;;;;;;;;;18.70;99.90;;;;;;5095308;28;20360;-89
2023/07/29 13:58:12;;;;;;;;;;;18.70;99.90;;;;;;5079780;28;19927;-88
2023/07/29 14:00:37;;;;;;;;;;;18.70;99.90;;;;;;5097590;28;19924;-88
2023/07/29 14:03:03;;;;;;;;;;;18.80;99.90;;;;;;5097185;28;19935;-87
2023/07/29 14:05:28;;;;;;;;;;;19.00;99.90;;;;;;5078250;28;19927;-87
2023/07/29 14:07:54;;;;;;;;;;;19.30;99.90;;;;;;5093757;28;19928;-88
2023/07/29 14:10:19;;;;;;;;;;;19.70;99.90;;;;;;5063012;28;19963;-88
2023/07/29 14:12:45;;;;;;;;;;;20.10;99.90;;;;;;5079643;28;19958;-87